Time;durP1;ratioP1;P1;durP2;ratioP2;P2;SDS_P1;SDS_P2;PMS_P1;PMS_P2;Temp;Humidity;BMP_temperature;BMP_pressure;BME280_temperature;BME280_humidity;BME280_pressure;Samples;Min_cycle;Max_cycle;Signal;HPM_P1;HPM_P2
2023/01/26 00:00:52;;;;;;;31.85;11.38;;;;;;;;;;4960382;28;20093;-70
2023/01/26 00:03:18;;;;;;;51.90;14.75;;;;;;;;;;4966372;28;20475;-70
2023/01/26 00:05:43;;;;;;;21.45;7.35;;;;;;;;;;4966348;28;20110;-70
2023/01/26 00:08:09;;;;;;;31.88;10.45;;;;;;;;;;4966651;28;20035;-70
2023/01/26 00:10:36;;;;;;;23.08;8.70;;;;;;;;;;4966358;28;20035;-70
2023/01/26 00:13:02;;;;;;;35.10;11.50;;;;;;;;;;4953824;28;20419;-70
2023/01/26 00:15:27;;;;;;;40.22;11.50;;;;;;;;;;4949243;28;20519;-70
2023/01/26 00:17:53;;;;;;;23.70;8.93;;;;;;;;;;4965182;28;20027;-70
2023/01/26 00:20:18;;;;;;;41.20;10.75;;;;;;;;;;4961262;28;20045;-70
2023/01/26 00:22:43;;;;;;;41.40;12.30;;;;;;;;;;4965964;28;20090;-70
2023/01/26 00:25:09;;;;;;;14.13;5.28;;;;;;;;;;4966325;28;20105;-70
2023/01/26 00:27:34;;;;;;;37.30;11.88;;;;;;;;;;4945277;28;20385;-70
2023/01/26 00:30:00;;;;;;;28.60;6.82;;;;;;;;;;4966943;28;20494;-70
2023/01/26 00:32:25;;;;;;;49.35;13.98;;;;;;;;;;4979996;28;20736;-70
2023/01/26 00:34:50;;;;;;;35.55;12.13;;;;;;;;;;4965502;28;20125;-70
2023/01/26 00:37:15;;;;;;;27.13;7.35;;;;;;;;;;4966696;28;20045;-70
2023/01/26 00:39:41;;;;;;;40.35;11.82;;;;;;;;;;4960646;28;20043;-70
2023/01/26 00:42:08;;;;;;;41.65;12.45;;;;;;;;;;4963024;28;20031;-70
2023/01/26 00:44:37;;;;;;;43.17;14.15;;;;;;;;;;4965856;28;20027;-70
2023/01/26 00:47:06;;;;;;;48.33;13.98;;;;;;;;;;4961165;28;20048;-70
2023/01/26 00:49:31;;;;;;;40.53;12.55;;;;;;;;;;4982320;28;20027;-70
2023/01/26 00:51:57;;;;;;;40.50;12.85;;;;;;;;;;4969968;28;20511;-70
2023/01/26 00:54:22;;;;;;;34.45;10.52;;;;;;;;;;4969367;28;20527;-70
2023/01/26 00:56:47;;;;;;;31.48;11.43;;;;;;;;;;4966607;28;20023;-70
2023/01/26 00:59:13;;;;;;;35.33;8.82;;;;;;;;;;4959952;28;20070;-70
2023/01/26 01:01:38;;;;;;;54.55;14.32;;;;;;;;;;4968076;28;20043;-70
2023/01/26 01:04:03;;;;;;;28.77;9.93;;;;;;;;;;4967802;28;20545;-70
2023/01/26 01:06:29;;;;;;;34.15;7.82;;;;;;;;;;4955413;28;20034;-70
2023/01/26 01:08:54;;;;;;;42.55;13.43;;;;;;;;;;4959907;28;20057;-70
2023/01/26 01:11:19;;;;;;;40.90;14.00;;;;;;;;;;4969895;28;20055;-70
2023/01/26 01:13:45;;;;;;;49.45;12.27;;;;;;;;;;4970064;28;20037;-69
2023/01/26 01:16:13;;;;;;;32.13;9.15;;;;;;;;;;4969789;28;20447;-70
2023/01/26 01:18:38;;;;;;;27.75;9.27;;;;;;;;;;4968146;28;20034;-70
2023/01/26 01:21:16;;;;;;;44.90;12.43;;;;;;;;;;4969817;28;20034;-70
2023/01/26 01:23:42;;;;;;;19.52;6.38;;;;;;;;;;4968770;28;20035;-69
2023/01/26 01:26:09;;;;;;;44.33;11.70;;;;;;;;;;4969737;28;20042;-70
2023/01/26 01:28:35;;;;;;;45.78;11.57;;;;;;;;;;4969164;28;20038;-70
2023/01/26 01:31:10;;;;;;;32.88;9.32;;;;;;;;;;4969080;28;20035;-70
2023/01/26 01:33:35;;;;;;;36.88;10.32;;;;;;;;;;4969461;28;20042;-70
2023/01/26 01:36:04;;;;;;;32.53;9.15;;;;;;;;;;4967958;28;20031;-70
2023/01/26 01:38:29;;;;;;;44.13;12.23;;;;;;;;;;4969215;28;20504;-70
2023/01/26 01:40:55;;;;;;;27.77;8.50;;;;;;;;;;4969154;28;20031;-70
2023/01/26 01:43:22;;;;;;;36.90;11.20;;;;;;;;;;4968204;28;20067;-70
2023/01/26 01:45:49;;;;;;;34.67;8.18;;;;;;;;;;4968772;28;20129;-70
2023/01/26 01:48:34;;;;;;;30.63;8.23;;;;;;;;;;4968057;28;20027;-70
2023/01/26 01:51:07;;;;;;;35.03;10.05;;;;;;;;;;4968740;28;20037;-70
2023/01/26 01:53:36;;;;;;;40.35;11.02;;;;;;;;;;4958932;28;20154;-70
2023/01/26 01:56:07;;;;;;;34.40;10.77;;;;;;;;;;4968157;28;20066;-70
2023/01/26 01:58:37;;;;;;;28.60;10.30;;;;;;;;;;4968684;28;20038;-70
2023/01/26 02:01:03;;;;;;;25.38;9.32;;;;;;;;;;4950915;28;20035;-70
2023/01/26 02:03:29;;;;;;;23.85;7.22;;;;;;;;;;4951154;28;20030;-70
2023/01/26 02:06:00;;;;;;;38.22;10.65;;;;;;;;;;4983743;28;20046;-70
2023/01/26 02:08:52;;;;;;;20.35;6.25;;;;;;;;;;4968824;28;20051;-70
2023/01/26 02:11:23;;;;;;;22.48;8.50;;;;;;;;;;4968535;28;20038;-70
2023/01/26 02:13:50;;;;;;;27.08;8.48;;;;;;;;;;4968528;28;20106;-70
2023/01/26 02:16:16;;;;;;;34.38;11.32;;;;;;;;;;4983139;28;20619;-70
2023/01/26 02:18:43;;;;;;;30.05;11.80;;;;;;;;;;4968045;28;20039;-70
2023/01/26 02:21:12;;;;;;;38.45;9.50;;;;;;;;;;4961771;28;20023;-70
2023/01/26 02:23:49;;;;;;;40.20;10.93;;;;;;;;;;4950892;28;20081;-70
2023/01/26 02:26:18;;;;;;;26.00;8.77;;;;;;;;;;4964915;28;20122;-70
2023/01/26 02:28:45;;;;;;;29.80;8.38;;;;;;;;;;4952200;28;20035;-70
2023/01/26 02:31:11;;;;;;;38.72;10.55;;;;;;;;;;4959652;28;20093;-70
2023/01/26 02:33:36;;;;;;;25.48;8.65;;;;;;;;;;4950705;28;20428;-70
2023/01/26 02:36:03;;;;;;;41.95;11.55;;;;;;;;;;4982918;28;20018;-70
2023/01/26 02:38:36;;;;;;;11.52;5.35;;;;;;;;;;4967756;28;20114;-70
2023/01/26 02:41:05;;;;;;;38.53;9.73;;;;;;;;;;4956695;28;20035;-70
2023/01/26 02:43:31;;;;;;;14.65;7.00;;;;;;;;;;4962501;28;20093;-70
2023/01/26 02:45:57;;;;;;;33.72;10.35;;;;;;;;;;4957313;28;20039;-70
2023/01/26 02:51:06;;;;;;;18.95;7.55;;;;;;;;;;4968411;28;20030;-70
2023/01/26 02:53:32;;;;;;;31.33;9.88;;;;;;;;;;4970766;28;20027;-70
2023/01/26 02:55:57;;;;;;;40.55;10.43;;;;;;;;;;4968163;28;20061;-70
2023/01/26 02:58:22;;;;;;;19.92;8.23;;;;;;;;;;4953131;28;20035;-70
2023/01/26 03:00:48;;;;;;;28.27;9.70;;;;;;;;;;4967317;28;20038;-70
2023/01/26 03:03:40;;;;;;;27.30;12.00;;;;;;;;;;4967757;28;20025;-70
2023/01/26 03:06:06;;;;;;;18.60;8.18;;;;;;;;;;4949861;28;20055;-70
2023/01/26 03:08:32;;;;;;;27.48;8.40;;;;;;;;;;4967161;28;20035;-70
2023/01/26 03:10:57;;;;;;;35.90;10.95;;;;;;;;;;4961707;28;20101;-70
2023/01/26 03:13:22;;;;;;;17.67;6.13;;;;;;;;;;4954377;28;20865;-70
2023/01/26 03:15:53;;;;;;;31.23;8.55;;;;;;;;;;4967687;28;20067;-70
2023/01/26 03:29:22;;;;;;;43.85;11.63;;;;;;;;;;4956765;28;20046;-70
2023/01/26 03:31:47;;;;;;;37.67;11.13;;;;;;;;;;4962354;28;20047;-69
2023/01/26 03:34:13;;;;;;;34.50;10.90;;;;;;;;;;4950054;28;20034;-70
2023/01/26 03:36:38;;;;;;;53.17;13.60;;;;;;;;;;4964708;28;20798;-70
2023/01/26 03:39:04;;;;;;;36.60;13.35;;;;;;;;;;4962715;28;20109;-70
2023/01/26 03:57:52;;;;;;;43.97;13.73;;;;;;;;;;4955000;28;20070;-70
2023/01/26 04:00:17;;;;;;;36.22;10.77;;;;;;;;;;4948925;28;20480;-70
2023/01/26 04:08:23;;;;;;;40.85;11.07;;;;;;;;;;4966039;28;20042;-70
2023/01/26 04:10:55;;;;;;;37.40;11.43;;;;;;;;;;4966803;28;20066;-70
2023/01/26 04:21:36;;;;;;;46.17;12.38;;;;;;;;;;4966514;28;20056;-70
2023/01/26 04:24:12;;;;;;;32.70;10.57;;;;;;;;;;4965892;28;20082;-70
2023/01/26 04:26:39;;;;;;;35.75;10.70;;;;;;;;;;4966623;28;20035;-70
2023/01/26 04:29:07;;;;;;;43.88;12.13;;;;;;;;;;4965264;28;20117;-70
2023/01/26 04:31:33;;;;;;;31.60;11.43;;;;;;;;;;4966607;28;20034;-70
2023/01/26 04:34:00;;;;;;;36.05;10.38;;;;;;;;;;4965094;28;20415;-70
2023/01/26 04:36:25;;;;;;;39.15;10.70;;;;;;;;;;4985385;28;20026;-70
2023/01/26 04:38:50;;;;;;;45.28;12.68;;;;;;;;;;4969951;28;20022;-70
2023/01/26 04:41:16;;;;;;;45.10;12.40;;;;;;;;;;4965604;28;20031;-70
2023/01/26 04:43:41;;;;;;;51.65;11.23;;;;;;;;;;4966213;28;21302;-70
2023/01/26 04:46:07;;;;;;;54.63;12.23;;;;;;;;;;4965783;28;20085;-70
2023/01/26 04:48:33;;;;;;;32.45;10.55;;;;;;;;;;4965362;28;20030;-70
2023/01/26 04:51:05;;;;;;;43.83;10.30;;;;;;;;;;4966578;28;20019;-70
2023/01/26 04:53:32;;;;;;;43.85;10.32;;;;;;;;;;4973652;28;20534;-70
2023/01/26 04:55:57;;;;;;;53.88;12.63;;;;;;;;;;4966511;28;20039;-70
2023/01/26 04:58:23;;;;;;;48.13;12.30;;;;;;;;;;4949530;28;20027;-70
2023/01/26 05:00:55;;;;;;;45.70;12.52;;;;;;;;;;4959415;28;20424;-70
2023/01/26 05:03:22;;;;;;;52.40;11.85;;;;;;;;;;4965707;28;20038;-70
2023/01/26 05:05:49;;;;;;;42.88;13.07;;;;;;;;;;4966915;28;20037;-70
2023/01/26 05:08:14;;;;;;;40.28;13.15;;;;;;;;;;4960434;28;20035;-70
2023/01/26 05:10:40;;;;;;;41.20;12.10;;;;;;;;;;4963184;28;20742;-70
2023/01/26 05:13:05;;;;;;;47.80;11.27;;;;;;;;;;4966427;28;20039;-70
2023/01/26 05:15:30;;;;;;;45.95;12.27;;;;;;;;;;4964449;28;20027;-70
2023/01/26 05:17:59;;;;;;;42.33;12.85;;;;;;;;;;4966264;28;20106;-70
2023/01/26 05:20:25;;;;;;;46.15;12.57;;;;;;;;;;4955249;28;20042;-70
2023/01/26 05:22:50;;;;;;;38.75;10.32;;;;;;;;;;4980575;28;20034;-70
2023/01/26 05:25:16;;;;;;;41.75;11.63;;;;;;;;;;4965599;28;20023;-69
2023/01/26 05:27:41;;;;;;;50.15;12.13;;;;;;;;;;4960234;28;20054;-70
2023/01/26 05:30:07;;;;;;;50.92;11.75;;;;;;;;;;4963471;28;20019;-70
2023/01/26 05:32:32;;;;;;;54.15;13.27;;;;;;;;;;4965159;28;20515;-70
2023/01/26 05:34:57;;;;;;;39.08;11.43;;;;;;;;;;4965032;28;20035;-70
2023/01/26 05:37:24;;;;;;;42.53;9.88;;;;;;;;;;4967325;28;20035;-70
2023/01/26 05:39:50;;;;;;;46.95;13.35;;;;;;;;;;4968282;28;20142;-70
2023/01/26 05:42:15;;;;;;;41.85;12.55;;;;;;;;;;4969292;28;20567;-70
2023/01/26 05:44:41;;;;;;;48.20;12.55;;;;;;;;;;4968105;28;20034;-70
2023/01/26 05:47:06;;;;;;;41.17;13.07;;;;;;;;;;4968126;28;20047;-70
2023/01/26 05:49:31;;;;;;;44.70;12.27;;;;;;;;;;4967237;28;20667;-70
2023/01/26 05:51:57;;;;;;;46.30;12.40;;;;;;;;;;4964919;28;20248;-70
2023/01/26 05:54:22;;;;;;;42.80;9.93;;;;;;;;;;4963899;28;20023;-70
2023/01/26 05:56:48;;;;;;;32.22;11.23;;;;;;;;;;4960186;28;20034;-70
2023/01/26 05:59:13;;;;;;;49.53;13.20;;;;;;;;;;4943659;28;20033;-70
2023/01/26 06:01:39;;;;;;;42.78;10.60;;;;;;;;;;4967059;28;20043;-71
2023/01/26 06:04:04;;;;;;;43.90;10.98;;;;;;;;;;4960068;28;20039;-71
2023/01/26 06:06:30;;;;;;;49.90;10.73;;;;;;;;;;4960214;28;20033;-70
2023/01/26 06:08:57;;;;;;;31.85;9.63;;;;;;;;;;4961670;28;20109;-70
2023/01/26 06:11:22;;;;;;;42.40;11.57;;;;;;;;;;4978888;28;20039;-70
2023/01/26 06:13:48;;;;;;;35.88;10.40;;;;;;;;;;4964316;28;20097;-70
2023/01/26 06:16:13;;;;;;;40.30;11.35;;;;;;;;;;4967062;28;20411;-70
2023/01/26 06:18:38;;;;;;;34.17;10.45;;;;;;;;;;4967617;28;20030;-70
2023/01/26 06:21:04;;;;;;;23.20;8.73;;;;;;;;;;4968718;28;20027;-70
2023/01/26 06:23:29;;;;;;;32.17;9.45;;;;;;;;;;4968109;28;20031;-70
2023/01/26 06:25:59;;;;;;;27.50;8.98;;;;;;;;;;4982967;28;20027;-70
2023/01/26 06:28:24;;;;;;;37.50;9.40;;;;;;;;;;4968245;28;20031;-70
2023/01/26 06:30:49;;;;;;;23.30;6.95;;;;;;;;;;4967036;28;20534;-70
2023/01/26 06:33:15;;;;;;;23.83;7.35;;;;;;;;;;4983873;28;20023;-70
2023/01/26 06:35:40;;;;;;;30.13;8.10;;;;;;;;;;4967291;28;20054;-70
2023/01/26 06:38:05;;;;;;;20.38;7.10;;;;;;;;;;4950412;28;20439;-70
2023/01/26 06:40:31;;;;;;;22.67;7.35;;;;;;;;;;4968421;28;20035;-70
2023/01/26 06:42:56;;;;;;;30.42;8.40;;;;;;;;;;4950076;28;20099;-70
2023/01/26 06:45:22;;;;;;;26.65;7.57;;;;;;;;;;4982088;28;20014;-70
2023/01/26 06:47:50;;;;;;;28.40;7.97;;;;;;;;;;4967773;28;20037;-70
2023/01/26 06:50:23;;;;;;;24.80;7.47;;;;;;;;;;4982763;28;20093;-70
2023/01/26 06:52:57;;;;;;;23.50;7.80;;;;;;;;;;4983227;28;20034;-70
2023/01/26 06:55:31;;;;;;;20.50;6.35;;;;;;;;;;4963728;28;20056;-70
2023/01/26 06:57:56;;;;;;;;;;;;;;;;;;4957647;28;20133;-70
2023/01/26 07:00:21;;;;;;;27.37;6.47;;;;;;;;;;4962933;28;20004;-70
2023/01/26 07:02:47;;;;;;;36.00;8.82;;;;;;;;;;4968093;28;20270;-70
2023/01/26 07:05:12;;;;;;;19.92;6.38;;;;;;;;;;4967495;28;20042;-70
2023/01/26 07:07:37;;;;;;;29.38;7.47;;;;;;;;;;4967696;28;20038;-70
2023/01/26 07:10:05;;;;;;;26.10;7.78;;;;;;;;;;4961266;28;20041;-70
2023/01/26 07:12:41;;;;;;;19.55;7.72;;;;;;;;;;4967696;28;20022;-70
2023/01/26 07:15:07;;;;;;;22.60;6.60;;;;;;;;;;4949173;28;20058;-70
2023/01/26 07:17:33;;;;;;;21.88;7.88;;;;;;;;;;4967332;28;20057;-70
2023/01/26 07:19:58;;;;;;;27.63;8.07;;;;;;;;;;4967481;28;20478;-70
2023/01/26 07:22:23;;;;;;;22.23;6.57;;;;;;;;;;4966984;28;20039;-70
2023/01/26 07:24:49;;;;;;;19.15;6.90;;;;;;;;;;4967141;28;20027;-70
2023/01/26 07:27:14;;;;;;;20.45;6.65;;;;;;;;;;4968143;28;20029;-70
2023/01/26 07:29:39;;;;;;;24.33;7.25;;;;;;;;;;4947201;28;20034;-70
2023/01/26 07:32:05;;;;;;;29.75;8.32;;;;;;;;;;4955243;28;20629;-70
2023/01/26 07:34:30;;;;;;;23.55;6.38;;;;;;;;;;4961796;28;20034;-70
2023/01/26 07:36:56;;;;;;;26.05;7.07;;;;;;;;;;4950013;28;20035;-70
2023/01/26 07:39:21;;;;;;;24.23;7.95;;;;;;;;;;4956679;28;20019;-70
2023/01/26 07:41:48;;;;;;;20.17;7.43;;;;;;;;;;4961958;28;20077;-70
2023/01/26 07:44:13;;;;;;;25.13;8.10;;;;;;;;;;4967295;28;20657;-70
2023/01/26 07:46:40;;;;;;;23.90;7.35;;;;;;;;;;4965323;28;20089;-70
2023/01/26 07:49:05;;;;;;;19.92;7.22;;;;;;;;;;4963077;28;20039;-70
2023/01/26 07:51:31;;;;;;;21.67;6.53;;;;;;;;;;4957559;28;20126;-70
2023/01/26 07:53:57;;;;;;;16.98;6.47;;;;;;;;;;4967323;28;20026;-70
2023/01/26 07:56:23;;;;;;;22.45;7.55;;;;;;;;;;4961849;28;20035;-70
2023/01/26 07:58:53;;;;;;;28.38;7.45;;;;;;;;;;4975168;28;20097;-70
2023/01/26 08:01:19;;;;;;;27.88;7.28;;;;;;;;;;4961294;28;20071;-70
2023/01/26 08:03:44;;;;;;;18.65;7.10;;;;;;;;;;4943810;28;20078;-69
2023/01/26 08:06:10;;;;;;;17.20;6.70;;;;;;;;;;4967192;28;20380;-70
2023/01/26 08:08:38;;;;;;;23.95;6.93;;;;;;;;;;4962521;28;20042;-70
2023/01/26 08:11:04;;;;;;;15.73;6.47;;;;;;;;;;4960845;28;20030;-70
2023/01/26 08:13:30;;;;;;;22.75;5.63;;;;;;;;;;4965103;28;20046;-70
2023/01/26 08:16:03;;;;;;;20.33;6.95;;;;;;;;;;4954227;28;20035;-70
2023/01/26 08:18:29;;;;;;;19.58;6.03;;;;;;;;;;4961928;28;20042;-70
2023/01/26 08:20:55;;;;;;;17.00;5.43;;;;;;;;;;4965812;28;20026;-70
2023/01/26 08:23:20;;;;;;;22.88;6.95;;;;;;;;;;4947962;28;20042;-70
2023/01/26 08:25:46;;;;;;;30.30;6.85;;;;;;;;;;4966418;28;20392;-70
2023/01/26 08:28:12;;;;;;;24.85;7.15;;;;;;;;;;4966342;28;20414;-70
2023/01/26 08:30:37;;;;;;;28.20;7.13;;;;;;;;;;4960985;28;20023;-70
2023/01/26 08:33:03;;;;;;;18.67;6.53;;;;;;;;;;4965910;28;20023;-70
2023/01/26 08:35:30;;;;;;;24.35;7.32;;;;;;;;;;4959874;28;20039;-70
2023/01/26 08:37:55;;;;;;;20.38;7.03;;;;;;;;;;4965895;28;20050;-70
2023/01/26 08:40:20;;;;;;;16.80;5.95;;;;;;;;;;4957608;28;20031;-70
2023/01/26 08:42:46;;;;;;;16.13;5.90;;;;;;;;;;4945374;28;20043;-70
2023/01/26 08:45:11;;;;;;;18.95;6.78;;;;;;;;;;4959074;28;20028;-70
2023/01/26 08:47:36;;;;;;;23.25;6.65;;;;;;;;;;4935013;28;20054;-70
2023/01/26 08:50:02;;;;;;;25.23;7.15;;;;;;;;;;4960884;28;20039;-70
2023/01/26 08:52:27;;;;;;;21.00;6.47;;;;;;;;;;4959283;28;20066;-70
2023/01/26 08:54:53;;;;;;;20.25;5.97;;;;;;;;;;4966415;28;20034;-70
2023/01/26 08:57:18;;;;;;;26.38;7.78;;;;;;;;;;4959214;28;20026;-70
2023/01/26 08:59:43;;;;;;;19.98;6.28;;;;;;;;;;4959498;28;20089;-70
2023/01/26 09:02:09;;;;;;;26.13;6.43;;;;;;;;;;4963826;28;20038;-70
2023/01/26 09:04:35;;;;;;;20.30;6.35;;;;;;;;;;4960512;28;20487;-70
2023/01/26 09:07:00;;;;;;;21.98;7.90;;;;;;;;;;4961691;28;20030;-70
2023/01/26 09:09:26;;;;;;;20.08;6.38;;;;;;;;;;4963100;28;20027;-70
2023/01/26 09:11:54;;;;;;;20.88;7.20;;;;;;;;;;4952562;28;20022;-70
2023/01/26 09:14:19;;;;;;;19.50;6.60;;;;;;;;;;4960696;28;20034;-70
2023/01/26 09:16:45;;;;;;;30.70;7.45;;;;;;;;;;4969516;28;20043;-71
2023/01/26 09:19:10;;;;;;;20.48;6.82;;;;;;;;;;4969315;28;20035;-71
2023/01/26 09:21:35;;;;;;;23.20;6.63;;;;;;;;;;4983179;28;20081;-71
2023/01/26 09:24:01;;;;;;;27.48;6.95;;;;;;;;;;4968637;28;20479;-71
2023/01/26 09:26:28;;;;;;;22.23;6.95;;;;;;;;;;4961317;28;20125;-71
2023/01/26 09:28:53;;;;;;;16.25;5.40;;;;;;;;;;4969389;28;20699;-71
2023/01/26 09:31:18;;;;;;;21.30;6.65;;;;;;;;;;4985812;28;20102;-71
2023/01/26 09:33:44;;;;;;;22.38;7.20;;;;;;;;;;4959319;28;20109;-71
2023/01/26 09:36:10;;;;;;;19.63;6.53;;;;;;;;;;4964891;28;20058;-71
2023/01/26 09:38:36;;;;;;;17.23;5.65;;;;;;;;;;4968213;28;20642;-71
2023/01/26 09:41:01;;;;;;;22.48;7.03;;;;;;;;;;4966980;28;20039;-71
2023/01/26 09:44:02;;;;;;;31.85;6.03;;;;;;;;;;4962335;28;20042;-71
2023/01/26 09:46:56;;;;;;;20.23;6.28;;;;;;;;;;4961454;28;20067;-71
2023/01/26 09:49:48;;;;;;;15.40;5.38;;;;;;;;;;4968914;28;20031;-71
2023/01/26 09:52:26;;;;;;;18.02;5.82;;;;;;;;;;4954568;28;20054;-71
2023/01/26 09:54:54;;;;;;;22.75;6.72;;;;;;;;;;4968035;28;20038;-71
2023/01/26 09:57:31;;;;;;;15.88;5.88;;;;;;;;;;4963288;28;20038;-71
2023/01/26 10:00:08;;;;;;;12.50;5.60;;;;;;;;;;4950445;28;20105;-71
2023/01/26 10:03:15;;;;;;;16.48;4.43;;;;;;;;;;4967071;28;20041;-71
2023/01/26 10:05:56;;;;;;;16.45;5.43;;;;;;;;;;4964882;28;20109;-71
2023/01/26 10:08:22;;;;;;;15.43;5.05;;;;;;;;;;4968742;28;20515;-71
2023/01/26 10:11:01;;;;;;;13.20;4.65;;;;;;;;;;4968109;28;20027;-71
2023/01/26 10:13:28;;;;;;;17.63;5.10;;;;;;;;;;4943715;28;20127;-71
2023/01/26 10:16:00;;;;;;;13.63;4.65;;;;;;;;;;4958965;28;20610;-71
2023/01/26 10:18:48;;;;;;;16.03;5.77;;;;;;;;;;4968770;28;20025;-71
2023/01/26 10:21:17;;;;;;;10.10;4.57;;;;;;;;;;4950283;28;20023;-71
2023/01/26 10:23:47;;;;;;;11.93;5.32;;;;;;;;;;4961769;28;20049;-71
2023/01/26 10:26:18;;;;;;;12.77;5.63;;;;;;;;;;4967972;28;20444;-71
2023/01/26 10:28:45;;;;;;;17.42;5.55;;;;;;;;;;4967942;28;20038;-71
2023/01/26 10:31:21;;;;;;;14.25;6.03;;;;;;;;;;4946561;28;20042;-71
2023/01/26 10:33:54;;;;;;;17.45;4.90;;;;;;;;;;4955167;28;20094;-71
2023/01/26 10:36:20;;;;;;;19.73;6.47;;;;;;;;;;4961295;28;20019;-71
2023/01/26 10:38:48;;;;;;;14.30;5.65;;;;;;;;;;4962331;28;20058;-71
2023/01/26 10:41:13;;;;;;;18.90;5.93;;;;;;;;;;4959889;28;20125;-71
2023/01/26 10:43:50;;;;;;;17.20;5.55;;;;;;;;;;4964839;28;20129;-71
2023/01/26 10:46:30;;;;;;;18.50;6.70;;;;;;;;;;4967650;28;20058;-71
2023/01/26 10:48:59;;;;;;;16.75;6.15;;;;;;;;;;4948123;28;20031;-71
2023/01/26 10:51:29;;;;;;;16.20;5.90;;;;;;;;;;4958895;28;20027;-71
2023/01/26 10:54:24;;;;;;;18.90;5.78;;;;;;;;;;4954829;28;20023;-71
2023/01/26 10:56:57;;;;;;;17.58;5.75;;;;;;;;;;4954810;28;20109;-71
2023/01/26 10:59:36;;;;;;;18.98;6.68;;;;;;;;;;4945851;28;20061;-71
2023/01/26 11:02:10;;;;;;;17.83;6.32;;;;;;;;;;4960379;28;20051;-71
2023/01/26 11:04:37;;;;;;;20.48;6.07;;;;;;;;;;4949432;28;20575;-71
2023/01/26 11:07:25;;;;;;;13.98;6.30;;;;;;;;;;4967528;28;20118;-71
2023/01/26 11:09:51;;;;;;;13.43;5.90;;;;;;;;;;4958640;28;20181;-71
2023/01/26 11:12:18;;;;;;;23.23;6.70;;;;;;;;;;4963624;28;20025;-71
2023/01/26 11:14:59;;;;;;;19.30;5.90;;;;;;;;;;4950021;28;20070;-71
2023/01/26 11:17:32;;;;;;;20.17;6.80;;;;;;;;;;4962270;28;20035;-70
2023/01/26 11:20:07;;;;;;;16.58;6.10;;;;;;;;;;4960798;28;20027;-71
2023/01/26 11:22:50;;;;;;;15.75;6.18;;;;;;;;;;4961045;28;20121;-70
2023/01/26 11:25:27;;;;;;;15.13;5.50;;;;;;;;;;4956116;28;20118;-70
2023/01/26 11:28:14;;;;;;;13.20;5.60;;;;;;;;;;4966300;28;20105;-71
2023/01/26 11:31:09;;;;;;;15.23;6.10;;;;;;;;;;4954674;28;20696;-71
2023/01/26 11:33:47;;;;;;;16.73;6.00;;;;;;;;;;4957531;28;20090;-71
2023/01/26 11:36:27;;;;;;;17.35;6.38;;;;;;;;;;4966385;28;20579;-71
2023/01/26 11:39:11;;;;;;;16.20;6.28;;;;;;;;;;4958181;28;20038;-71
2023/01/26 11:42:01;;;;;;;23.95;6.32;;;;;;;;;;4962142;28;20035;-71
2023/01/26 11:44:40;;;;;;;11.32;5.47;;;;;;;;;;4954658;28;20058;-71
2023/01/26 11:47:15;;;;;;;14.15;5.97;;;;;;;;;;4958660;28;20050;-71
2023/01/26 11:50:03;;;;;;;14.65;5.72;;;;;;;;;;4949521;28;20034;-71
2023/01/26 11:52:53;;;;;;;21.15;7.15;;;;;;;;;;4969818;28;20030;-71
2023/01/26 11:55:27;;;;;;;19.10;6.25;;;;;;;;;;4960964;28;20514;-71
2023/01/26 11:58:14;;;;;;;17.77;6.95;;;;;;;;;;4955472;28;20098;-71
2023/01/26 12:00:43;;;;;;;13.10;5.68;;;;;;;;;;4955079;28;20134;-71
2023/01/26 12:03:37;;;;;;;17.65;6.88;;;;;;;;;;4961681;28;20616;-71
2023/01/26 12:06:13;;;;;;;22.75;7.18;;;;;;;;;;4958355;28;20034;-70
2023/01/26 12:08:42;;;;;;;20.52;7.32;;;;;;;;;;4954821;28;20050;-71
2023/01/26 12:11:24;;;;;;;21.40;7.65;;;;;;;;;;4962602;28;20681;-71
2023/01/26 12:13:58;;;;;;;22.23;8.02;;;;;;;;;;4963352;28;20483;-71
2023/01/26 12:16:41;;;;;;;21.40;7.00;;;;;;;;;;4965971;28;20043;-71
2023/01/26 12:19:42;;;;;;;22.42;7.60;;;;;;;;;;4953498;28;20035;-71
2023/01/26 12:22:18;;;;;;;27.88;7.75;;;;;;;;;;4908370;29;20027;-71
2023/01/26 12:24:53;;;;;;;18.83;7.80;;;;;;;;;;4957197;28;20039;-71
2023/01/26 12:27:33;;;;;;;30.33;8.55;;;;;;;;;;4960099;28;20031;-71
2023/01/26 12:30:29;;;;;;;22.80;7.03;;;;;;;;;;4956820;28;20035;-71
2023/01/26 12:32:55;;;;;;;27.23;8.20;;;;;;;;;;4960499;28;20061;-71
2023/01/26 12:35:42;;;;;;;25.73;7.05;;;;;;;;;;4966082;28;20644;-71
2023/01/26 12:38:15;;;;;;;27.52;8.63;;;;;;;;;;4966899;28;20078;-71
2023/01/26 12:40:47;;;;;;;28.70;8.00;;;;;;;;;;4973963;28;20416;-71
2023/01/26 12:43:19;;;;;;;20.85;8.63;;;;;;;;;;4961357;28;20118;-70
2023/01/26 12:45:49;;;;;;;25.05;8.25;;;;;;;;;;4954755;28;20047;-71
2023/01/26 12:48:20;;;;;;;25.92;9.02;;;;;;;;;;4953408;28;20022;-71
2023/01/26 12:50:54;;;;;;;28.73;9.32;;;;;;;;;;4945850;28;20039;-71
2023/01/26 12:53:29;;;;;;;26.35;9.00;;;;;;;;;;4953660;28;20031;-71
2023/01/26 12:56:33;;;;;;;22.20;8.10;;;;;;;;;;4933582;28;20035;-71
2023/01/26 12:59:02;;;;;;;33.70;9.38;;;;;;;;;;4908763;29;20077;-71
2023/01/26 13:01:37;;;;;;;25.92;8.70;;;;;;;;;;4904478;29;20699;-71
2023/01/26 13:04:08;;;;;;;21.38;8.45;;;;;;;;;;4929952;28;20494;-71
2023/01/26 13:06:34;;;;;;;24.10;8.80;;;;;;;;;;4945454;28;20405;-71
2023/01/26 13:09:14;;;;;;;27.98;8.88;;;;;;;;;;4945164;28;20027;-71
2023/01/26 13:11:42;;;;;;;38.67;10.63;;;;;;;;;;4931560;29;20031;-71
2023/01/26 13:14:29;;;;;;;24.23;8.10;;;;;;;;;;4945666;28;20123;-70
2023/01/26 13:16:56;;;;;;;30.75;9.10;;;;;;;;;;4950532;28;20039;-71
2023/01/26 13:19:50;;;;;;;23.33;7.80;;;;;;;;;;4949080;28;20035;-71
2023/01/26 13:22:18;;;;;;;24.17;7.65;;;;;;;;;;4945913;28;20114;-71
2023/01/26 13:24:47;;;;;;;22.90;7.45;;;;;;;;;;4949432;28;20543;-71
2023/01/26 13:27:54;;;;;;;29.70;8.20;;;;;;;;;;4950476;28;20464;-71
2023/01/26 13:30:22;;;;;;;24.63;6.95;;;;;;;;;;4914707;28;20078;-71
2023/01/26 13:32:48;;;;;;;24.17;6.15;;;;;;;;;;4940659;28;20038;-71
2023/01/26 13:35:16;;;;;;;23.33;5.47;;;;;;;;;;4932647;28;20036;-71
2023/01/26 13:37:52;;;;;;;18.85;5.05;;;;;;;;;;4948235;28;20063;-71
2023/01/26 13:40:32;;;;;;;13.00;3.97;;;;;;;;;;4936281;28;20630;-71
2023/01/26 13:43:15;;;;;;;22.90;5.07;;;;;;;;;;4943827;28;20071;-71
2023/01/26 13:45:59;;;;;;;16.02;4.25;;;;;;;;;;4927301;28;20066;-71
2023/01/26 13:49:04;;;;;;;13.23;4.20;;;;;;;;;;4941883;28;20552;-71
2023/01/26 13:51:32;;;;;;;31.00;5.32;;;;;;;;;;4890265;29;20036;-71
2023/01/26 13:54:06;;;;;;;17.77;4.70;;;;;;;;;;4887137;29;20229;-71
2023/01/26 13:56:37;;;;;;;16.38;4.00;;;;;;;;;;4916875;28;20040;-71
2023/01/26 13:59:12;;;;;;;17.15;3.85;;;;;;;;;;4936136;28;20035;-71
2023/01/26 14:01:46;;;;;;;10.13;2.72;;;;;;;;;;4919117;29;20055;-71
2023/01/26 14:04:23;;;;;;;10.77;2.88;;;;;;;;;;4931637;29;20512;-71
2023/01/26 14:07:01;;;;;;;9.95;3.15;;;;;;;;;;4948034;28;20082;-71
2023/01/26 14:09:28;;;;;;;10.27;2.70;;;;;;;;;;4947702;28;20030;-71
2023/01/26 14:12:05;;;;;;;21.27;3.60;;;;;;;;;;4942665;28;20109;-71
2023/01/26 14:14:32;;;;;;;12.35;3.80;;;;;;;;;;4948260;28;20047;-71
2023/01/26 14:16:58;;;;;;;9.52;2.88;;;;;;;;;;4926721;29;20043;-71
2023/01/26 14:19:25;;;;;;;9.60;2.67;;;;;;;;;;4947318;28;20540;-71
2023/01/26 14:21:56;;;;;;;10.52;2.85;;;;;;;;;;4936017;28;20066;-71
2023/01/26 14:24:31;;;;;;;15.75;2.70;;;;;;;;;;4948470;28;20031;-71
2023/01/26 14:26:56;;;;;;;9.02;2.75;;;;;;;;;;4927419;28;20413;-71
2023/01/26 14:29:24;;;;;;;14.65;4.50;;;;;;;;;;4948529;28;20027;-71
2023/01/26 14:31:57;;;;;;;6.90;2.30;;;;;;;;;;4947285;28;20054;-71
2023/01/26 14:34:26;;;;;;;14.00;2.80;;;;;;;;;;4931644;28;20925;-71
2023/01/26 14:37:04;;;;;;;11.43;2.40;;;;;;;;;;4938844;28;20591;-71
2023/01/26 14:39:29;;;;;;;8.95;2.25;;;;;;;;;;4939176;28;20034;-71
2023/01/26 14:41:55;;;;;;;5.88;2.53;;;;;;;;;;4946422;28;20019;-71
2023/01/26 14:44:21;;;;;;;12.38;2.30;;;;;;;;;;4943722;28;20039;-71
2023/01/26 14:46:58;;;;;;;12.80;2.55;;;;;;;;;;4961435;28;20039;-71
2023/01/26 14:49:29;;;;;;;11.48;1.77;;;;;;;;;;4952057;28;20520;-71
2023/01/26 14:51:57;;;;;;;6.90;3.15;;;;;;;;;;4962669;28;20039;-71
2023/01/26 14:54:31;;;;;;;13.27;3.03;;;;;;;;;;4985737;28;20161;-71
2023/01/26 14:56:58;;;;;;;5.43;1.58;;;;;;;;;;4940986;28;20041;-71
2023/01/26 14:59:35;;;;;;;7.22;2.30;;;;;;;;;;4961865;28;20031;-71
2023/01/26 15:02:20;;;;;;;9.70;1.95;;;;;;;;;;4959010;28;20954;-71
2023/01/26 15:05:02;;;;;;;12.63;2.35;;;;;;;;;;4957734;28;20126;-71
2023/01/26 15:07:37;;;;;;;4.75;1.88;;;;;;;;;;4937272;28;20023;-71
2023/01/26 15:10:37;;;;;;;5.45;1.90;;;;;;;;;;4952897;28;20073;-71
2023/01/26 15:13:14;;;;;;;6.97;1.77;;;;;;;;;;4962572;28;20043;-71
2023/01/26 15:15:42;;;;;;;8.82;1.77;;;;;;;;;;4943301;28;20505;-71
2023/01/26 15:18:13;;;;;;;11.80;2.00;;;;;;;;;;4955548;28;20022;-71
2023/01/26 15:20:59;;;;;;;12.27;2.70;;;;;;;;;;4957876;28;20602;-71
2023/01/26 15:23:35;;;;;;;6.45;2.55;;;;;;;;;;4964202;28;20031;-71
2023/01/26 15:26:11;;;;;;;7.30;2.10;;;;;;;;;;4962120;28;20066;-71
2023/01/26 15:28:37;;;;;;;9.73;2.03;;;;;;;;;;4957084;28;20035;-70
2023/01/26 15:31:03;;;;;;;16.10;2.30;;;;;;;;;;4964037;28;20078;-71